Time;durP1;ratioP1;P1;durP2;ratioP2;P2;SDS_P1;SDS_P2;PMS_P1;PMS_P2;Temp;Humidity;BMP_temperature;BMP_pressure;BME280_temperature;BME280_humidity;BME280_pressure;Samples;Min_cycle;Max_cycle;Signal;HPM_P1;HPM_P2
2023/04/26 00:01:30;;;;;;;4.57;2.10;;;7.20;99.90;;;;;;4947835;28;20055;-62
2023/04/26 00:03:57;;;;;;;1.90;1.80;;;7.20;99.90;;;;;;4946200;28;20055;-64
2023/04/26 00:06:25;;;;;;;3.72;2.25;;;7.20;99.90;;;;;;4947695;28;20867;-73
2023/04/26 00:08:53;;;;;;;3.58;1.80;;;7.20;99.90;;;;;;4945803;28;20061;-62
2023/04/26 00:11:21;;;;;;;3.53;1.92;;;7.30;99.90;;;;;;4935294;28;20632;-71
2023/04/26 00:13:48;;;;;;;2.00;1.85;;;7.20;99.90;;;;;;4927407;29;20063;-66
2023/04/26 00:16:17;;;;;;;2.95;2.70;;;7.20;99.90;;;;;;4925579;28;20051;-63
2023/04/26 00:18:45;;;;;;;2.30;1.95;;;7.20;99.90;;;;;;4950561;28;20059;-63
2023/04/26 00:21:12;;;;;;;2.97;2.05;;;7.20;99.90;;;;;;4936554;28;20589;-69
2023/04/26 00:23:38;;;;;;;2.65;1.65;;;7.20;99.90;;;;;;4954323;28;20059;-62
2023/04/26 00:26:06;;;;;;;2.03;1.83;;;7.20;99.90;;;;;;4939280;28;20056;-65
2023/04/26 00:28:33;;;;;;;2.22;1.77;;;7.20;99.90;;;;;;4943336;28;20047;-74
2023/04/26 00:31:00;;;;;;;5.82;2.33;;;7.20;99.90;;;;;;4961983;28;20146;-67
2023/04/26 00:33:27;;;;;;;1.98;1.88;;;7.20;99.90;;;;;;4941207;28;21182;-71
2023/04/26 00:35:55;;;;;;;4.28;1.98;;;7.20;99.90;;;;;;4946840;28;20113;-71
2023/04/26 00:38:21;;;;;;;2.88;2.47;;;7.20;99.90;;;;;;4938573;28;20057;-65
2023/04/26 00:40:50;;;;;;;2.22;2.03;;;7.20;99.90;;;;;;4945942;28;20408;-68
2023/04/26 00:43:17;;;;;;;3.30;1.83;;;7.20;99.90;;;;;;4956079;28;20130;-77
2023/04/26 00:45:44;;;;;;;2.67;1.98;;;7.20;99.90;;;;;;4961076;28;20062;-67
2023/04/26 00:48:11;;;;;;;2.05;1.85;;;7.20;99.90;;;;;;4959315;28;20095;-68
2023/04/26 00:50:39;;;;;;;3.85;2.20;;;7.10;99.90;;;;;;4947364;28;20059;-73
2023/04/26 00:53:07;;;;;;;2.80;2.60;;;7.10;99.90;;;;;;4955601;28;20051;-70
2023/04/26 00:55:34;;;;;;;5.47;3.05;;;7.10;99.90;;;;;;4949610;28;20134;-63
2023/04/26 00:58:01;;;;;;;6.35;3.17;;;7.10;99.90;;;;;;4953242;28;20051;-64
2023/04/26 01:00:28;;;;;;;2.63;2.40;;;7.10;99.90;;;;;;4928855;28;20097;-67
2023/04/26 01:02:56;;;;;;;3.28;2.38;;;7.10;99.90;;;;;;4926073;28;20064;-67
2023/04/26 01:05:23;;;;;;;3.28;2.22;;;7.10;99.90;;;;;;4925845;29;20435;-69
2023/04/26 01:07:51;;;;;;;3.55;2.65;;;7.10;99.90;;;;;;4936103;28;20134;-63
2023/04/26 01:10:18;;;;;;;2.53;2.33;;;7.10;99.90;;;;;;4946055;28;20051;-65
2023/04/26 01:12:45;;;;;;;4.13;3.20;;;7.10;99.90;;;;;;4939572;28;20455;-67
2023/04/26 01:15:17;;;;;;;3.55;2.03;;;7.00;99.90;;;;;;4957351;28;20769;-63
2023/04/26 01:17:46;;;;;;;3.13;2.42;;;7.00;99.90;;;;;;4931366;28;20187;-67
2023/04/26 01:20:13;;;;;;;4.57;2.67;;;7.00;99.90;;;;;;4940026;28;20762;-67
2023/04/26 01:22:40;;;;;;;2.45;2.10;;;7.00;99.90;;;;;;4946282;28;20051;-63
2023/04/26 01:25:10;;;;;;;4.63;3.42;;;7.00;99.90;;;;;;4942182;28;20113;-68
2023/04/26 01:27:38;;;;;;;2.40;2.20;;;7.00;99.90;;;;;;4960362;28;20102;-77
2023/04/26 01:30:07;;;;;;;3.83;2.97;;;6.90;99.90;;;;;;4940766;28;20052;-63
2023/04/26 01:32:34;;;;;;;5.50;2.80;;;7.00;99.90;;;;;;4943696;28;20158;-62
2023/04/26 01:35:02;;;;;;;4.00;3.20;;;7.00;99.90;;;;;;4933543;28;20072;-66
2023/04/26 01:37:29;;;;;;;4.55;3.05;;;6.90;99.90;;;;;;4944118;28;20043;-68
2023/04/26 01:39:58;;;;;;;3.45;2.75;;;6.90;99.90;;;;;;4945384;28;20086;-66
2023/04/26 01:42:25;;;;;;;4.72;2.28;;;6.90;99.90;;;;;;4943625;28;20166;-72
2023/04/26 01:44:52;;;;;;;5.80;3.17;;;6.90;99.90;;;;;;4922292;29;20143;-63
2023/04/26 01:47:19;;;;;;;7.50;5.05;;;6.90;99.90;;;;;;4941124;28;20099;-66
2023/04/26 01:49:46;;;;;;;13.55;3.45;;;6.90;99.90;;;;;;4961598;28;20047;-63
2023/04/26 01:52:13;;;;;;;3.83;2.58;;;6.90;99.90;;;;;;4948050;28;20573;-67
2023/04/26 01:54:40;;;;;;;5.85;3.65;;;6.90;99.90;;;;;;4944488;28;20102;-62
2023/04/26 02:01:19;;;;;;;6.70;2.72;;;6.80;99.90;;;;;;4943993;28;20058;-71
2023/04/26 02:03:45;;;;;;;11.13;3.90;;;6.80;99.90;;;;;;4942144;28;20051;-63
2023/04/26 02:06:12;;;;;;;5.28;3.45;;;6.80;99.90;;;;;;4947645;28;20063;-64
2023/04/26 02:08:39;;;;;;;5.30;3.47;;;6.70;99.90;;;;;;4957875;28;20047;-65
2023/04/26 02:11:06;;;;;;;4.53;3.30;;;6.70;99.90;;;;;;4943939;28;20051;-68
2023/04/26 02:13:35;;;;;;;4.78;3.42;;;6.70;99.90;;;;;;4959514;28;20150;-65
2023/04/26 02:16:02;;;;;;;6.53;3.70;;;6.70;99.90;;;;;;4945855;28;20051;-64
2023/04/26 02:26:59;;;;;;;9.55;3.95;;;6.60;99.90;;;;;;4948634;28;20058;-62
2023/04/26 02:29:26;;;;;;;7.55;3.58;;;6.60;99.90;;;;;;4953516;28;20063;-72
2023/04/26 02:32:10;;;;;;;5.82;3.72;;;6.60;99.90;;;;;;4944559;28;20102;-63
2023/04/26 02:34:52;;;;;;;5.35;4.25;;;6.60;99.90;;;;;;4952212;28;20094;-68
2023/04/26 02:37:20;;;;;;;4.57;4.20;;;6.50;99.90;;;;;;4949421;28;20075;-63
2023/04/26 02:39:51;;;;;;;4.25;3.15;;;6.50;99.90;;;;;;4940394;28;20063;-64
2023/04/26 02:42:18;;;;;;;4.93;4.03;;;6.60;99.90;;;;;;4957532;28;20545;-72
2023/04/26 02:53:10;;;;;;;6.57;3.28;;;6.50;99.90;;;;;;4947095;28;20054;-63
2023/04/26 02:55:38;;;;;;;8.70;5.03;;;6.50;99.90;;;;;;4964536;28;20062;-72
2023/04/26 02:58:05;;;;;;;7.22;3.95;;;6.50;99.90;;;;;;4946171;28;20059;-63
2023/04/26 03:00:33;;;;;;;4.70;4.25;;;6.40;99.90;;;;;;4956733;28;20050;-62
2023/04/26 03:03:00;;;;;;;8.25;4.00;;;6.40;99.90;;;;;;4963232;28;20059;-63
2023/04/26 03:05:27;;;;;;;15.93;5.57;;;6.40;99.90;;;;;;4950512;28;20111;-63
2023/04/26 03:07:54;;;;;;;12.63;5.35;;;6.40;99.90;;;;;;4945645;28;20059;-65
2023/04/26 03:10:22;;;;;;;8.45;4.75;;;6.40;99.90;;;;;;4944714;28;20138;-65
2023/04/26 03:12:48;;;;;;;8.02;4.88;;;6.40;99.90;;;;;;4946285;28;20427;-63
2023/04/26 03:15:15;;;;;;;11.68;5.28;;;6.40;99.90;;;;;;4948896;28;20086;-63
2023/04/26 03:17:43;;;;;;;8.32;4.88;;;6.40;99.90;;;;;;4960296;28;20059;-63
2023/04/26 03:20:10;;;;;;;6.78;4.68;;;6.40;99.90;;;;;;4949792;28;20051;-65
2023/04/26 03:22:38;;;;;;;11.60;4.60;;;6.40;99.90;;;;;;4943304;28;20047;-62
2023/04/26 03:25:06;;;;;;;8.73;5.00;;;6.40;99.90;;;;;;4938213;28;20728;-64
2023/04/26 03:27:33;;;;;;;12.20;5.40;;;6.40;99.90;;;;;;4957162;28;20129;-73
2023/04/26 03:30:00;;;;;;;8.95;5.03;;;6.40;99.90;;;;;;4943789;28;20052;-62
2023/04/26 03:32:27;;;;;;;8.05;5.28;;;6.40;99.90;;;;;;4944118;28;20055;-65
2023/04/26 03:34:55;;;;;;;11.25;5.20;;;6.40;99.90;;;;;;4931361;28;20079;-64
2023/04/26 03:37:21;;;;;;;11.77;5.82;;;6.40;99.90;;;;;;4945467;28;20879;-69
2023/04/26 03:39:56;;;;;;;11.45;5.75;;;6.40;99.90;;;;;;4931177;28;20091;-68
2023/04/26 03:42:23;;;;;;;12.60;4.70;;;6.40;99.90;;;;;;4941970;28;20457;-63
2023/04/26 03:44:50;;;;;;;16.02;5.28;;;6.40;99.90;;;;;;4946466;28;20055;-63
2023/04/26 03:47:17;;;;;;;8.05;5.00;;;6.40;99.90;;;;;;4949339;28;20047;-75
2023/04/26 03:49:44;;;;;;;12.38;5.68;;;6.40;99.90;;;;;;4953458;28;20206;-69
2023/04/26 03:52:11;;;;;;;9.23;4.93;;;6.40;99.90;;;;;;4946484;28;20043;-67
2023/04/26 03:54:38;;;;;;;11.65;5.93;;;6.40;99.90;;;;;;4947027;28;20061;-74
2023/04/26 03:57:05;;;;;;;10.60;6.30;;;6.40;99.90;;;;;;4930927;29;20102;-63
2023/04/26 03:59:32;;;;;;;11.23;5.18;;;6.40;99.90;;;;;;4928058;29;20095;-75
2023/04/26 04:01:58;;;;;;;13.00;5.60;;;6.40;99.90;;;;;;4940721;28;20139;-64
2023/04/26 04:04:26;;;;;;;19.05;6.22;;;6.40;99.90;;;;;;4947496;28;20113;-70
2023/04/26 04:06:53;;;;;;;13.65;5.80;;;6.40;99.90;;;;;;4967221;28;20051;-75
2023/04/26 04:09:20;;;;;;;10.18;5.20;;;6.30;99.90;;;;;;4951926;28;20051;-64
2023/04/26 04:11:47;;;;;;;13.70;6.15;;;6.30;99.90;;;;;;4951764;28;20196;-68
2023/04/26 04:14:14;;;;;;;11.15;5.53;;;6.30;99.90;;;;;;4946873;28;20071;-67
2023/04/26 04:16:40;;;;;;;8.43;6.05;;;6.30;99.90;;;;;;4941839;28;20453;-66
2023/04/26 04:19:08;;;;;;;12.75;7.03;;;6.30;99.90;;;;;;4960791;28;20122;-64
2023/04/26 04:21:35;;;;;;;12.75;7.43;;;6.30;99.90;;;;;;4965634;28;20059;-67
2023/04/26 04:24:02;;;;;;;10.80;6.35;;;6.30;99.90;;;;;;4926766;29;20119;-66
2023/04/26 04:26:29;;;;;;;15.45;6.47;;;6.30;99.90;;;;;;4946128;28;20047;-69
2023/04/26 04:29:07;;;;;;;14.00;4.97;;;6.30;99.90;;;;;;4943258;28;20061;-66
2023/04/26 04:31:35;;;;;;;14.90;6.32;;;6.30;99.90;;;;;;4944774;28;20510;-66
2023/04/26 04:34:03;;;;;;;16.25;7.43;;;6.30;99.90;;;;;;4951423;28;20142;-65
2023/04/26 04:36:30;;;;;;;17.45;6.75;;;6.30;99.90;;;;;;4961171;28;20051;-66
2023/04/26 04:38:57;;;;;;;12.07;5.88;;;6.30;99.90;;;;;;4946626;29;20051;-63
2023/04/26 04:41:25;;;;;;;10.40;5.88;;;6.40;99.90;;;;;;4959805;28;20063;-70
2023/04/26 04:43:52;;;;;;;12.00;6.50;;;6.30;99.90;;;;;;4960124;28;20051;-65
2023/04/26 04:46:20;;;;;;;10.43;6.65;;;6.40;99.90;;;;;;4966453;28;20145;-66
2023/04/26 04:48:48;;;;;;;15.02;6.38;;;6.40;99.90;;;;;;4957269;28;20087;-62
2023/04/26 04:51:15;;;;;;;14.55;5.68;;;6.40;99.90;;;;;;4962679;28;20497;-66
2023/04/26 04:53:42;;;;;;;8.73;5.38;;;6.40;99.90;;;;;;4961744;28;20137;-65
2023/04/26 04:56:09;;;;;;;7.82;5.53;;;6.50;99.90;;;;;;4947900;28;20082;-63
2023/04/26 04:58:36;;;;;;;13.38;6.05;;;6.50;99.90;;;;;;4964041;28;20685;-67
2023/04/26 05:01:04;;;;;;;15.07;7.40;;;6.50;99.90;;;;;;4949718;28;20118;-64
2023/04/26 05:03:44;;;;;;;13.15;6.53;;;6.50;99.90;;;;;;4959688;28;20146;-65
2023/04/26 05:06:11;;;;;;;13.25;6.63;;;6.40;99.90;;;;;;4958703;28;20047;-63
2023/04/26 05:08:37;;;;;;;15.00;7.65;;;6.40;99.90;;;;;;4948619;28;20508;-68
2023/04/26 05:11:07;;;;;;;14.00;6.32;;;6.40;99.90;;;;;;4946806;28;20061;-63
2023/04/26 05:13:33;;;;;;;10.10;7.47;;;6.30;99.90;;;;;;4932610;29;20146;-63
2023/04/26 05:16:00;;;;;;;12.70;5.75;;;6.30;99.90;;;;;;4942739;28;20055;-63
2023/04/26 05:18:28;;;;;;;11.90;5.32;;;6.30;99.90;;;;;;4944374;28;20413;-63
2023/04/26 05:20:56;;;;;;;16.85;6.68;;;6.20;99.90;;;;;;4941994;28;20502;-71
2023/04/26 05:23:24;;;;;;;14.32;6.35;;;6.20;99.90;;;;;;4953305;28;20060;-66
2023/04/26 05:25:51;;;;;;;10.30;6.32;;;6.20;99.90;;;;;;4945260;28;20144;-65
2023/04/26 05:28:38;;;;;;;19.13;7.07;;;6.20;99.90;;;;;;4928736;28;20051;-63
2023/04/26 05:31:20;;;;;;;13.98;5.82;;;6.10;99.90;;;;;;4962402;28;20354;-70
2023/04/26 05:33:56;;;;;;;16.63;6.40;;;6.10;99.90;;;;;;4961625;28;20082;-68
2023/04/26 05:36:31;;;;;;;12.38;7.75;;;6.10;99.90;;;;;;4926822;28;20054;-69
2023/04/26 05:38:57;;;;;;;17.85;7.13;;;6.20;99.90;;;;;;4937125;28;20103;-63
2023/04/26 05:41:24;;;;;;;12.90;6.03;;;6.10;99.90;;;;;;4925925;29;20051;-67
2023/04/26 05:43:52;;;;;;;14.73;5.78;;;6.20;99.90;;;;;;4926600;29;20174;-63
2023/04/26 05:46:19;;;;;;;17.95;6.20;;;6.10;99.90;;;;;;4927910;28;20059;-62
2023/04/26 05:48:46;;;;;;;12.20;6.43;;;6.20;99.90;;;;;;4948453;28;20059;-72
2023/04/26 05:51:13;;;;;;;13.93;6.47;;;6.20;99.90;;;;;;4960682;28;20063;-72
2023/04/26 05:53:40;;;;;;;13.38;5.43;;;6.20;99.90;;;;;;4955231;28;20394;-65
2023/04/26 05:56:07;;;;;;;15.88;6.90;;;6.20;99.90;;;;;;4947325;28;20051;-65
2023/04/26 05:58:34;;;;;;;19.67;7.00;;;6.20;99.90;;;;;;4954669;28;20616;-62
2023/04/26 06:01:02;;;;;;;6.70;4.85;;;6.10;99.90;;;;;;4941962;28;20055;-66
2023/04/26 06:03:29;;;;;;;9.18;5.43;;;6.20;99.90;;;;;;4958173;28;20131;-66
2023/04/26 06:05:58;;;;;;;9.20;4.53;;;6.20;99.90;;;;;;4955294;28;20055;-69
2023/04/26 06:08:27;;;;;;;10.30;5.35;;;6.20;99.90;;;;;;4945051;28;20083;-67
2023/04/26 06:10:54;;;;;;;5.82;4.30;;;6.20;99.90;;;;;;4946501;28;20087;-66
2023/04/26 06:13:21;;;;;;;7.05;3.97;;;6.20;99.90;;;;;;4940079;28;20061;-69
2023/04/26 06:15:47;;;;;;;9.18;4.30;;;6.20;99.90;;;;;;4944324;28;20087;-62
2023/04/26 06:18:14;;;;;;;6.90;3.30;;;6.10;99.90;;;;;;4947633;28;20720;-63
2023/04/26 06:20:41;;;;;;;10.82;4.15;;;6.10;99.90;;;;;;4949150;28;20047;-65
2023/04/26 06:23:08;;;;;;;6.13;3.25;;;6.10;99.90;;;;;;4949358;28;20066;-76
2023/04/26 06:25:36;;;;;;;18.17;4.20;;;6.00;99.90;;;;;;4947564;28;20409;-62
2023/04/26 06:28:03;;;;;;;5.85;3.38;;;6.00;99.90;;;;;;4947348;28;20575;-66
2023/04/26 06:30:30;;;;;;;5.13;2.42;;;6.00;99.90;;;;;;4960026;28;20098;-62
2023/04/26 06:32:58;;;;;;;3.03;2.60;;;6.00;99.90;;;;;;4947640;28;20051;-63
2023/04/26 06:35:26;;;;;;;3.08;2.28;;;6.00;99.90;;;;;;4961978;28;20531;-73
2023/04/26 06:37:53;;;;;;;4.18;2.35;;;6.10;99.90;;;;;;4963268;28;20138;-70
2023/04/26 06:40:20;;;;;;;2.15;1.23;;;6.10;99.90;;;;;;4951129;28;20500;-68
2023/04/26 06:42:48;;;;;;;1.13;0.65;;;6.00;99.90;;;;;;4949719;28;20096;-65
2023/04/26 06:45:15;;;;;;;1.30;1.05;;;5.90;99.90;;;;;;4943505;28;20409;-65
2023/04/26 06:47:43;;;;;;;2.15;1.08;;;5.90;99.90;;;;;;4964645;28;20047;-62
2023/04/26 06:50:11;;;;;;;4.43;1.23;;;5.90;99.90;;;;;;4939659;28;20066;-65
2023/04/26 06:52:38;;;;;;;2.55;1.10;;;6.00;99.90;;;;;;4940829;28;20059;-61
2023/04/26 06:55:06;;;;;;;3.72;0.88;;;6.00;99.90;;;;;;4940014;28;20051;-67
2023/04/26 06:57:32;;;;;;;1.35;0.70;;;6.00;99.90;;;;;;4944159;28;20106;-74
2023/04/26 06:59:59;;;;;;;1.73;0.90;;;5.90;99.90;;;;;;4945392;28;20067;-62
2023/04/26 07:02:26;;;;;;;4.28;1.75;;;5.90;99.90;;;;;;4944530;28;20066;-69
2023/04/26 07:04:53;;;;;;;2.95;0.80;;;6.00;99.90;;;;;;4949231;28;20069;-75
2023/04/26 07:07:20;;;;;;;2.60;1.00;;;6.00;99.90;;;;;;4949928;28;20161;-64
2023/04/26 07:09:47;;;;;;;4.20;1.05;;;6.00;99.90;;;;;;4948453;28;20143;-63
2023/04/26 07:12:14;;;;;;;2.35;0.93;;;6.10;99.90;;;;;;4938900;28;20414;-73
2023/04/26 07:14:42;;;;;;;3.83;1.35;;;6.10;99.90;;;;;;4940656;28;20575;-67
2023/04/26 07:17:09;;;;;;;3.25;1.10;;;6.10;99.90;;;;;;4934355;28;20059;-73
2023/04/26 07:19:36;;;;;;;1.85;0.80;;;6.30;99.90;;;;;;4945629;28;20083;-65
2023/04/26 07:22:03;;;;;;;1.00;0.57;;;6.30;99.90;;;;;;4940171;28;20075;-62
2023/04/26 07:24:30;;;;;;;2.65;0.60;;;6.30;99.90;;;;;;4943006;28;20058;-64
2023/04/26 07:26:57;;;;;;;0.80;0.40;;;6.10;99.90;;;;;;4950564;28;20138;-69
2023/04/26 07:29:24;;;;;;;3.03;0.73;;;6.20;99.90;;;;;;4947735;28;20069;-71
2023/04/26 07:31:51;;;;;;;0.75;0.38;;;6.30;99.90;;;;;;4952909;28;20055;-66
2023/04/26 07:34:18;;;;;;;0.85;0.50;;;6.30;99.90;;;;;;4947582;28;20607;-62
2023/04/26 07:36:45;;;;;;;0.90;0.60;;;6.30;99.90;;;;;;4945772;28;20490;-62
2023/04/26 07:39:14;;;;;;;1.48;0.90;;;6.30;99.90;;;;;;4948567;28;20070;-71
2023/04/26 07:41:41;;;;;;;1.75;0.73;;;6.40;99.90;;;;;;4947376;28;20532;-70
2023/04/26 07:44:10;;;;;;;0.30;0.30;;;6.40;99.90;;;;;;4936320;28;20059;-62
2023/04/26 07:46:37;;;;;;;0.60;0.30;;;6.40;99.90;;;;;;4952568;28;20063;-64
2023/04/26 07:49:04;;;;;;;0.82;0.80;;;6.40;99.90;;;;;;4950915;28;20055;-63
2023/04/26 07:51:30;;;;;;;0.60;0.40;;;6.50;99.90;;;;;;4944882;28;20059;-63
2023/04/26 07:53:57;;;;;;;2.95;0.60;;;6.50;99.90;;;;;;4941090;28;20196;-66
2023/04/26 07:56:24;;;;;;;4.68;0.82;;;6.60;99.90;;;;;;4945672;28;20528;-74
2023/04/26 07:58:51;;;;;;;2.03;0.60;;;6.60;99.90;;;;;;4945006;28;20154;-72
2023/04/26 08:01:18;;;;;;;0.63;0.60;;;6.50;99.90;;;;;;4944887;28;20042;-62
2023/04/26 08:03:46;;;;;;;1.38;0.57;;;6.50;99.90;;;;;;4947416;28;20401;-64
2023/04/26 08:06:13;;;;;;;0.68;0.60;;;6.40;99.90;;;;;;4947561;28;20157;-67
2023/04/26 08:08:44;;;;;;;0.85;0.63;;;6.40;99.90;;;;;;4942830;28;20055;-62
2023/04/26 08:11:11;;;;;;;2.72;0.50;;;6.40;99.90;;;;;;4948841;28;20113;-71
2023/04/26 08:13:38;;;;;;;1.80;0.88;;;6.50;99.90;;;;;;4941060;28;20063;-69
2023/04/26 08:16:05;;;;;;;1.00;0.60;;;6.50;99.90;;;;;;4945036;28;20059;-63
2023/04/26 08:18:32;;;;;;;3.20;0.55;;;6.60;99.90;;;;;;4948526;28;20046;-75
2023/04/26 08:20:59;;;;;;;1.25;0.73;;;6.50;99.90;;;;;;4945295;28;20051;-64
2023/04/26 08:23:27;;;;;;;1.00;0.50;;;6.60;99.90;;;;;;4938873;28;20043;-72
2023/04/26 08:25:54;;;;;;;2.17;0.93;;;6.60;99.90;;;;;;4933683;28;20119;-71
2023/04/26 08:28:20;;;;;;;1.95;1.55;;;6.50;99.90;;;;;;4949157;28;20046;-68
2023/04/26 08:30:47;;;;;;;0.98;0.40;;;6.60;99.90;;;;;;4940335;28;20059;-76
2023/04/26 08:33:17;;;;;;;0.57;0.25;;;6.60;99.90;;;;;;4941111;28;20058;-68
2023/04/26 08:35:44;;;;;;;1.40;0.73;;;6.60;99.90;;;;;;4942956;28;20074;-67
2023/04/26 08:38:11;;;;;;;1.33;0.70;;;6.50;99.90;;;;;;4943948;28;20047;-67
2023/04/26 08:40:42;;;;;;;3.28;0.60;;;6.50;99.90;;;;;;4944631;28;20478;-72
2023/04/26 08:43:10;;;;;;;2.58;0.52;;;6.40;99.90;;;;;;4933841;28;20091;-66
2023/04/26 08:45:40;;;;;;;1.85;0.40;;;6.40;99.90;;;;;;4938864;28;20043;-65
2023/04/26 08:48:13;;;;;;;2.63;0.70;;;6.60;99.90;;;;;;4937548;28;20070;-61
2023/04/26 08:50:44;;;;;;;2.00;0.63;;;6.60;99.90;;;;;;4944756;28;20086;-63
2023/04/26 08:53:18;;;;;;;1.27;0.30;;;6.50;99.90;;;;;;4944567;28;20059;-66
2023/04/26 08:55:49;;;;;;;1.30;0.50;;;6.50;99.90;;;;;;4932602;28;20190;-62
2023/04/26 08:58:20;;;;;;;4.18;0.40;;;6.60;99.90;;;;;;4922608;28;20056;-63
2023/04/26 09:00:47;;;;;;;0.95;0.45;;;6.60;99.90;;;;;;4948207;28;20114;-68
2023/04/26 09:03:14;;;;;;;8.38;0.63;;;6.50;99.90;;;;;;4936032;28;20142;-63
2023/04/26 09:05:43;;;;;;;1.67;0.77;;;6.60;99.90;;;;;;4946901;28;20051;-62
2023/04/26 09:08:19;;;;;;;2.20;1.02;;;6.70;99.90;;;;;;4944270;28;20047;-66
2023/04/26 09:10:46;;;;;;;0.68;0.55;;;6.70;99.90;;;;;;4948512;28;20509;-65
2023/04/26 09:13:13;;;;;;;0.88;0.63;;;6.90;99.90;;;;;;4946802;28;20047;-63
2023/04/26 09:15:40;;;;;;;4.35;0.70;;;6.90;99.90;;;;;;4948780;28;20086;-64
2023/04/26 09:18:21;;;;;;;0.85;0.60;;;6.90;99.90;;;;;;4941564;28;20054;-65
2023/04/26 09:21:05;;;;;;;1.80;0.73;;;6.90;99.90;;;;;;4942197;28;20114;-64
2023/04/26 09:23:32;;;;;;;1.23;0.68;;;7.00;99.90;;;;;;4941028;28;20057;-62
2023/04/26 09:26:19;;;;;;;2.42;0.93;;;7.00;99.90;;;;;;4944189;28;20062;-69
2023/04/26 09:28:47;;;;;;;4.07;0.93;;;7.10;99.90;;;;;;4943541;28;20062;-68
2023/04/26 09:31:40;;;;;;;1.20;1.10;;;7.10;99.90;;;;;;4936453;28;20078;-64
2023/04/26 09:34:08;;;;;;;0.82;0.82;;;7.00;99.90;;;;;;4938706;28;20078;-63
2023/04/26 09:36:55;;;;;;;1.42;0.60;;;7.10;99.90;;;;;;4938486;28;20058;-73
2023/04/26 09:39:31;;;;;;;2.10;1.48;;;7.10;99.90;;;;;;4948054;28;20780;-62
2023/04/26 09:41:59;;;;;;;3.80;1.23;;;7.00;99.90;;;;;;4946503;28;20154;-63
2023/04/26 09:44:25;;;;;;;3.22;0.88;;;7.00;99.90;;;;;;4947840;28;20047;-64
2023/04/26 09:47:08;;;;;;;1.05;0.57;;;6.90;99.90;;;;;;4945428;28;20086;-71
2023/04/26 09:49:50;;;;;;;4.45;1.55;;;6.90;99.90;;;;;;4945995;28;20056;-63
2023/04/26 09:52:18;;;;;;;2.30;0.60;;;6.80;99.90;;;;;;4939133;28;20056;-62
2023/04/26 09:54:53;;;;;;;0.40;0.40;;;6.90;99.90;;;;;;4944323;28;20082;-66
2023/04/26 09:57:21;;;;;;;2.22;0.60;;;6.90;99.90;;;;;;4951529;28;20106;-64
2023/04/26 09:59:50;;;;;;;2.35;0.90;;;7.00;99.90;;;;;;4960242;28;20070;-62
2023/04/26 10:02:24;;;;;;;2.75;0.88;;;7.10;99.90;;;;;;4942988;28;20514;-65
2023/04/26 10:04:54;;;;;;;1.90;0.85;;;7.00;99.90;;;;;;4951940;28;20062;-64
2023/04/26 10:07:25;;;;;;;1.48;0.50;;;7.20;99.90;;;;;;4941260;28;20933;-67
2023/04/26 10:09:53;;;;;;;1.42;0.50;;;7.00;99.90;;;;;;4942214;28;20059;-68
2023/04/26 10:12:21;;;;;;;0.73;0.73;;;7.10;99.90;;;;;;4948145;28;20063;-64
2023/04/26 10:14:48;;;;;;;0.98;0.80;;;7.10;99.90;;;;;;4952725;28;20713;-65
2023/04/26 10:17:17;;;;;;;0.40;0.40;;;7.20;99.90;;;;;;4950861;28;20094;-70
2023/04/26 10:19:46;;;;;;;3.08;0.80;;;7.20;99.90;;;;;;4952757;28;20481;-66
2023/04/26 10:22:27;;;;;;;0.50;0.50;;;7.40;99.90;;;;;;4940194;28;20079;-64
2023/04/26 10:24:57;;;;;;;1.52;1.10;;;7.30;99.90;;;;;;4950144;28;20119;-62
2023/04/26 10:27:42;;;;;;;1.58;1.17;;;7.30;99.90;;;;;;4949656;28;20070;-68
2023/04/26 10:30:20;;;;;;;2.15;0.73;;;7.30;99.90;;;;;;4947940;28;20047;-63
2023/04/26 10:32:59;;;;;;;0.50;0.50;;;7.30;99.90;;;;;;4951737;28;20073;-63
2023/04/26 10:35:28;;;;;;;2.45;0.68;;;7.30;99.90;;;;;;4948214;28;20074;-65
2023/04/26 10:38:01;;;;;;;1.23;1.05;;;7.40;99.90;;;;;;4949608;28;20154;-65
2023/04/26 10:40:32;;;;;;;0.50;0.50;;;7.50;99.90;;;;;;4944305;28;20050;-69
2023/04/26 10:43:12;;;;;;;0.70;0.52;;;7.50;99.90;;;;;;4954333;28;20407;-63
2023/04/26 10:45:40;;;;;;;;;;;7.50;99.90;;;;;;4946806;28;20051;-63
2023/04/26 10:48:30;;;;;;;7.15;0.88;;;7.80;99.90;;;;;;4945804;28;20012;-66
2023/04/26 10:51:11;;;;;;;2.10;0.60;;;7.80;99.90;;;;;;4949364;28;20047;-64
2023/04/26 10:53:47;;;;;;;1.20;0.85;;;7.70;99.90;;;;;;4946095;28;20042;-65
2023/04/26 10:56:26;;;;;;;0.88;0.88;;;7.60;99.90;;;;;;4944266;28;20130;-66
2023/04/26 10:59:12;;;;;;;1.70;0.60;;;7.70;99.90;;;;;;4949375;28;20055;-65
2023/04/26 11:01:59;;;;;;;7.53;0.70;;;7.80;99.90;;;;;;4947234;28;20047;-64
2023/04/26 11:04:49;;;;;;;0.60;0.60;;;7.60;99.90;;;;;;4943669;28;20051;-68
2023/04/26 11:07:36;;;;;;;3.15;1.00;;;7.60;99.90;;;;;;4941805;28;20051;-64
2023/04/26 11:10:06;;;;;;;3.38;1.42;;;7.60;99.90;;;;;;4949951;28;20130;-63
2023/04/26 11:12:33;;;;;;;0.50;0.50;;;7.50;99.90;;;;;;4927220;29;20051;-64
2023/04/26 11:15:00;;;;;;;2.50;1.10;;;7.40;99.90;;;;;;4928282;28;20047;-68
2023/04/26 11:17:27;;;;;;;0.50;0.50;;;7.50;99.90;;;;;;4948887;28;20047;-73
2023/04/26 11:19:54;;;;;;;0.80;0.80;;;7.60;99.90;;;;;;4947540;28;20051;-67
2023/04/26 11:22:22;;;;;;;0.75;0.63;;;7.60;99.90;;;;;;4945807;28;20122;-70
2023/04/26 11:24:49;;;;;;;1.25;1.15;;;7.70;99.90;;;;;;4946994;28;20061;-64
2023/04/26 11:27:16;;;;;;;1.08;0.88;;;7.60;99.90;;;;;;4943721;28;20047;-62
2023/04/26 11:29:43;;;;;;;1.90;0.63;;;7.70;99.90;;;;;;4942916;28;20483;-65
2023/04/26 11:32:11;;;;;;;0.82;0.50;;;7.70;99.90;;;;;;4945382;28;20157;-64
2023/04/26 11:34:39;;;;;;;1.13;0.98;;;7.80;99.90;;;;;;4949579;28;20716;-62
2023/04/26 11:37:06;;;;;;;2.67;0.60;;;8.10;99.90;;;;;;4946984;28;21084;-64
2023/04/26 11:39:35;;;;;;;1.00;0.57;;;8.00;99.90;;;;;;4944230;28;20509;-66
2023/04/26 11:42:11;;;;;;;1.10;1.00;;;7.90;99.90;;;;;;4945454;28;20070;-71
2023/04/26 11:44:39;;;;;;;0.70;0.70;;;8.00;99.90;;;;;;4920661;28;20036;-63
2023/04/26 11:47:07;;;;;;;0.60;0.60;;;8.10;99.90;;;;;;4928338;28;20051;-62
2023/04/26 11:49:38;;;;;;;0.80;0.63;;;8.30;99.90;;;;;;4929357;28;20070;-62
2023/04/26 11:52:05;;;;;;;;;;;8.40;99.90;;;;;;4944820;28;20818;-68
2023/04/26 11:54:34;;;;;;;0.55;0.55;;;8.40;99.90;;;;;;4939602;28;19930;-63
2023/04/26 11:57:13;;;;;;;0.85;0.47;;;8.50;99.90;;;;;;4947801;28;20588;-66
2023/04/26 11:59:43;;;;;;;0.70;0.30;;;8.60;99.90;;;;;;4947184;28;20055;-65
2023/04/26 12:02:10;;;;;;;1.10;1.02;;;8.80;99.90;;;;;;4944552;28;20110;-62
2023/04/26 12:04:40;;;;;;;3.55;0.65;;;8.90;99.90;;;;;;4948333;28;20059;-63
2023/04/26 12:07:08;;;;;;;;;;;9.00;99.90;;;;;;4949403;28;20062;-62
2023/04/26 12:09:40;;;;;;;0.40;0.40;;;9.20;99.90;;;;;;4944494;28;20134;-65
2023/04/26 12:12:07;;;;;;;0.25;0.22;;;9.20;99.90;;;;;;4935761;28;20574;-62
2023/04/26 12:14:35;;;;;;;0.57;0.30;;;9.30;99.90;;;;;;4949004;28;20110;-62
2023/04/26 12:17:04;;;;;;;0.75;0.40;;;9.30;99.90;;;;;;4947348;28;20648;-65
2023/04/26 12:19:33;;;;;;;0.40;0.30;;;9.60;99.90;;;;;;4947654;28;20126;-64
2023/04/26 12:22:00;;;;;;;1.38;0.40;;;9.50;99.90;;;;;;4944917;28;20114;-62
2023/04/26 12:24:29;;;;;;;0.40;0.40;;;9.70;99.90;;;;;;4944851;28;20062;-66
2023/04/26 12:26:56;;;;;;;0.65;0.63;;;9.60;99.90;;;;;;4943088;28;20051;-78
2023/04/26 12:29:27;;;;;;;0.45;0.40;;;9.60;99.90;;;;;;4943941;28;20050;-74
2023/04/26 12:31:54;;;;;;;2.28;0.40;;;9.60;99.90;;;;;;4946119;28;20065;-71
2023/04/26 12:34:21;;;;;;;0.52;0.40;;;9.60;99.90;;;;;;4944814;28;20058;-62
2023/04/26 12:36:49;;;;;;;0.50;0.50;;;9.70;99.90;;;;;;4946466;28;20146;-64
2023/04/26 12:39:15;;;;;;;0.40;0.40;;;9.80;99.90;;;;;;4947961;28;20138;-69
2023/04/26 12:41:44;;;;;;;0.50;0.50;;;10.00;99.90;;;;;;4952677;28;20564;-69
2023/04/26 12:44:11;;;;;;;2.95;1.20;;;9.90;99.90;;;;;;4943305;28;20062;-66
2023/04/26 12:46:38;;;;;;;1.17;1.08;;;9.80;99.90;;;;;;4947106;28;20512;-72
2023/04/26 12:49:05;;;;;;;3.30;0.60;;;9.90;99.90;;;;;;4948168;28;20051;-64
2023/04/26 12:51:32;;;;;;;2.35;0.68;;;9.80;99.90;;;;;;4945958;28;20477;-67
2023/04/26 12:53:59;;;;;;;0.50;0.40;;;9.70;99.90;;;;;;4948866;28;20044;-65
2023/04/26 12:56:28;;;;;;;0.47;0.43;;;9.60;99.90;;;;;;4951953;28;20125;-75
2023/04/26 12:58:55;;;;;;;2.60;0.73;;;9.80;99.90;;;;;;4944773;28;20051;-69
2023/04/26 13:01:22;;;;;;;0.63;0.40;;;9.90;99.90;;;;;;4941509;28;20082;-75
2023/04/26 13:03:49;;;;;;;1.23;0.52;;;9.90;99.90;;;;;;4940557;28;20122;-72
2023/04/26 13:06:16;;;;;;;1.75;0.25;;;9.90;99.90;;;;;;4942055;28;20047;-71
2023/04/26 13:08:43;;;;;;;0.57;0.50;;;10.00;99.90;;;;;;4943072;28;20055;-63
2023/04/26 13:11:10;;;;;;;0.40;0.40;;;10.00;99.90;;;;;;4960551;28;20052;-70
2023/04/26 13:13:37;;;;;;;1.90;0.70;;;10.10;99.90;;;;;;4947047;28;20047;-66
2023/04/26 13:16:10;;;;;;;0.45;0.45;;;10.20;99.90;;;;;;4945115;28;20146;-63
2023/04/26 13:18:38;;;;;;;0.63;0.28;;;10.10;99.90;;;;;;4947939;28;20059;-62
2023/04/26 13:21:06;;;;;;;1.95;0.82;;;9.90;99.90;;;;;;4946131;28;20043;-65
2023/04/26 13:23:33;;;;;;;0.60;0.60;;;10.10;99.90;;;;;;4945007;28;20134;-66
2023/04/26 13:26:00;;;;;;;0.50;0.38;;;10.00;99.90;;;;;;4945013;28;20156;-66